createdAt,value
2019-01-28T00:05:02.307Z,3.07
2019-01-28T00:07:50.640Z,3.80
2019-01-28T00:10:19.946Z,2.87
2019-01-28T00:15:37.682Z,4.97
2019-01-28T00:18:07.010Z,2.97
2019-01-28T00:20:36.496Z,2.13
2019-01-28T00:23:45.127Z,3.23
2019-01-28T00:26:14.536Z,3.17
2019-01-28T00:28:43.819Z,4.70
2019-01-28T00:31:13.396Z,3.10
2019-01-28T00:33:42.721Z,2.43
2019-01-28T00:36:12.363Z,3.60
2019-01-28T00:38:41.714Z,4.10
2019-01-28T00:41:11.246Z,3.60
2019-01-28T00:43:40.613Z,2.43
2019-01-28T00:46:10.354Z,2.47
2019-01-28T00:48:39.645Z,2.73
2019-01-28T00:51:09.029Z,2.73
2019-01-28T00:53:38.318Z,2.87
2019-01-28T00:56:08.019Z,3.07
2019-01-28T00:58:37.323Z,3.43
2019-01-28T01:01:06.875Z,4.23
2019-01-28T01:03:55.298Z,4.23
2019-01-28T01:06:24.570Z,3.90
2019-01-28T01:08:54.184Z,4.40
2019-01-28T01:11:23.497Z,2.47
2019-01-28T01:16:41.578Z,3.73
2019-01-28T01:19:10.846Z,2.30
2019-01-28T01:21:40.701Z,3.47
2019-01-28T01:24:10.016Z,2.23
2019-01-28T01:26:39.472Z,4.03
2019-01-28T01:29:08.763Z,3.70
2019-01-28T01:31:38.102Z,3.73
2019-01-28T01:34:07.380Z,3.67
2019-01-28T01:36:36.977Z,3.30
2019-01-28T01:39:08.508Z,2.83
2019-01-28T01:41:56.783Z,2.83
2019-01-28T01:44:26.387Z,3.87
2019-01-28T01:46:55.662Z,4.07
2019-01-28T01:49:25.371Z,4.70
2019-01-28T01:51:54.573Z,4.57
2019-01-28T01:54:24.098Z,2.50
2019-01-28T01:56:53.370Z,4.33
2019-01-28T01:59:22.958Z,2.90
2019-01-28T02:02:11.439Z,3.67
2019-01-28T02:04:40.802Z,4.37
2019-01-28T02:07:10.325Z,3.70
2019-01-28T02:09:39.610Z,3.53
2019-01-28T02:12:09.257Z,5.47
2019-01-28T02:19:47.635Z,3.93
2019-01-28T02:22:16.911Z,3.67
2019-01-28T02:24:46.245Z,5.00
2019-01-28T02:27:15.579Z,2.60
2019-01-28T02:29:44.863Z,4.57
2019-01-28T02:34:49.178Z,2.83
2019-01-28T02:37:37.515Z,4.33
2019-01-28T02:40:27.191Z,4.50
2019-01-28T02:42:56.707Z,3.20
2019-01-28T02:45:25.980Z,3.70
2019-01-28T02:47:55.383Z,2.67
2019-01-28T02:50:24.672Z,3.10
2019-01-28T02:52:54.222Z,3.40
2019-01-28T02:55:42.514Z,3.77
2019-01-28T02:58:11.859Z,4.30
2019-01-28T03:00:41.255Z,3.57
2019-01-28T03:03:10.537Z,3.87
2019-01-28T03:05:40.275Z,4.50
2019-01-28T03:08:09.548Z,3.77
2019-01-28T03:10:39.256Z,3.50
2019-01-28T03:13:08.533Z,3.60
2019-01-28T03:18:26.857Z,3.13
2019-01-28T03:20:56.141Z,4.50
2019-01-28T03:26:02.885Z,3.67
2019-01-28T03:28:32.184Z,3.73
2019-01-28T03:31:01.762Z,5.90
2019-01-28T03:33:31.043Z,4.37
2019-01-28T03:36:00.415Z,3.13
2019-01-28T03:38:29.711Z,4.20
2019-01-28T03:40:59.310Z,5.57
2019-01-28T03:43:28.599Z,3.87
2019-01-28T03:45:58.130Z,4.80
2019-01-28T03:48:27.427Z,4.27
2019-01-28T03:50:57.045Z,5.57
2019-01-28T03:53:26.611Z,3.93
2019-01-28T03:55:56.260Z,5.17
2019-01-28T03:58:25.572Z,5.23
2019-01-28T04:00:55.200Z,3.33
2019-01-28T04:03:24.499Z,3.80
2019-01-28T04:05:54.090Z,3.47
2019-01-28T04:08:23.390Z,4.67
2019-01-28T04:10:53.041Z,5.87
2019-01-28T04:13:22.327Z,5.57
2019-01-28T04:15:51.735Z,4.60
2019-01-28T04:18:21.030Z,5.40
2019-01-28T04:21:09.361Z,3.77
2019-01-28T04:23:57.691Z,4.47
2019-01-28T04:26:45.950Z,3.20
2019-01-28T04:29:15.257Z,4.67
2019-01-28T04:31:44.530Z,3.33
2019-01-28T04:34:13.993Z,6.07
2019-01-28T04:36:43.235Z,4.00
2019-01-28T04:39:12.584Z,9.37
2019-01-28T04:42:00.903Z,5.10
2019-01-28T04:44:30.212Z,5.80
2019-01-28T04:46:59.528Z,5.57
2019-01-28T04:49:28.834Z,6.17
2019-01-28T04:51:58.124Z,3.97
2019-01-28T04:54:27.632Z,6.50
2019-01-28T04:56:56.988Z,5.53
2019-01-28T04:59:26.262Z,5.80
2019-01-28T05:01:55.608Z,6.27
2019-01-28T05:04:24.902Z,7.90
2019-01-28T05:06:54.174Z,6.73
2019-01-28T05:09:42.454Z,4.97
2019-01-28T05:12:11.974Z,5.80
2019-01-28T05:14:41.261Z,7.07
2019-01-28T05:17:10.748Z,5.40
2019-01-28T05:19:40.149Z,7.87
2019-01-28T05:22:09.539Z,7.40
2019-01-28T05:24:38.854Z,6.10
2019-01-28T05:27:08.382Z,5.53
2019-01-28T05:29:37.702Z,6.37
2019-01-28T05:32:07.345Z,6.13
2019-01-28T05:34:36.639Z,8.00
2019-01-28T05:37:05.988Z,5.73
2019-01-28T05:39:35.294Z,6.10
2019-01-28T05:42:04.765Z,7.53
2019-01-28T05:47:22.418Z,6.63
2019-01-28T05:49:52.036Z,7.23
2019-01-28T05:52:21.348Z,5.63
2019-01-28T05:54:50.928Z,5.50
2019-01-28T05:57:20.213Z,10.30
2019-01-28T05:59:49.790Z,6.17
2019-01-28T06:02:19.057Z,6.80
2019-01-28T06:04:48.591Z,6.23
2019-01-28T06:07:37.037Z,6.50
2019-01-28T06:10:26.257Z,6.30
2019-01-28T06:12:55.545Z,7.70
2019-01-28T06:15:25.133Z,6.40
2019-01-28T06:17:54.437Z,6.80
2019-01-28T06:20:24.213Z,8.37
2019-01-28T06:22:56.688Z,8.13
2019-01-28T06:25:27.484Z,7.57
2019-01-28T06:27:56.970Z,6.67
2019-01-28T06:30:28.691Z,9.20
2019-01-28T06:36:09.132Z,5.10
2019-01-28T06:38:38.554Z,7.03
2019-01-28T06:41:07.901Z,7.80
2019-01-28T06:46:57.083Z,6.63
2019-01-28T06:49:45.660Z,6.40
2019-01-28T06:52:26.574Z,7.63
2019-01-28T06:54:56.520Z,8.27
2019-01-28T06:57:28.164Z,9.87
2019-01-28T06:59:57.514Z,7.07
2019-01-28T07:05:23.030Z,6.30
2019-01-28T07:07:52.391Z,6.13
2019-01-28T07:10:21.702Z,8.37
2019-01-28T07:12:51.239Z,6.73
2019-01-28T07:15:59.907Z,7.93
2019-01-28T07:18:29.439Z,4.73
2019-01-28T07:21:17.895Z,8.40
2019-01-28T07:23:47.198Z,6.77
2019-01-28T07:26:16.825Z,7.73
2019-01-28T07:31:21.026Z,6.00
2019-01-28T07:33:50.351Z,8.17
2019-01-28T07:36:19.650Z,7.00
2019-01-28T07:38:49.058Z,7.87
2019-01-28T07:41:18.366Z,9.40
2019-01-28T07:43:47.976Z,8.13
2019-01-28T07:46:36.313Z,11.20
2019-01-28T07:49:05.808Z,10.90
2019-01-28T07:51:35.218Z,5.27
2019-01-28T07:54:25.229Z,7.60
2019-01-28T07:56:54.535Z,7.67
2019-01-28T08:00:03.213Z,8.17
2019-01-28T08:02:32.504Z,7.90
2019-01-28T08:05:02.056Z,7.40
2019-01-28T08:07:31.423Z,8.20
2019-01-28T08:10:00.992Z,8.40
2019-01-28T08:12:50.050Z,6.73
2019-01-28T08:15:20.693Z,7.60
2019-01-28T08:17:50.190Z,9.80
2019-01-28T08:20:20.088Z,10.30
2019-01-28T08:22:49.476Z,6.43
2019-01-28T08:25:58.697Z,9.93
2019-01-28T08:28:28.294Z,6.43
2019-01-28T08:30:57.588Z,9.33
2019-01-28T08:33:27.000Z,6.13
2019-01-28T08:35:56.280Z,9.00
2019-01-28T08:38:25.583Z,10.33
2019-01-28T08:40:54.905Z,9.13
2019-01-28T08:43:24.212Z,6.87
2019-01-28T08:45:53.536Z,6.40
2019-01-28T08:48:22.855Z,6.33
2019-01-28T08:50:52.155Z,10.00
2019-01-28T08:53:21.576Z,8.60
2019-01-28T08:55:50.968Z,6.80
2019-01-28T08:58:20.274Z,7.83
2019-01-28T09:00:49.561Z,8.53
2019-01-28T09:03:37.840Z,6.57
2019-01-28T09:09:00.971Z,5.87
2019-01-28T09:11:30.355Z,7.03
2019-01-28T09:13:59.664Z,7.03
2019-01-28T09:16:29.087Z,9.87
2019-01-28T09:18:58.377Z,13.48
2019-01-28T09:21:28.517Z,7.53
2019-01-28T09:23:57.875Z,9.10
2019-01-28T09:26:27.242Z,7.53
2019-01-28T09:28:56.687Z,8.43
2019-01-28T09:31:26.249Z,8.33
2019-01-28T09:34:14.468Z,7.37
2019-01-28T09:36:43.758Z,5.13
2019-01-28T09:39:32.124Z,8.23
2019-01-28T09:42:01.623Z,7.57
2019-01-28T09:44:30.989Z,9.83
2019-01-28T09:47:00.298Z,8.47
2019-01-28T09:49:30.132Z,8.97
2019-01-28T09:52:18.460Z,5.40
2019-01-28T09:54:48.572Z,12.00
2019-01-28T09:57:17.957Z,8.10
2019-01-28T09:59:47.351Z,12.07
2019-01-28T10:02:16.642Z,8.17
2019-01-28T10:04:46.085Z,6.50
2019-01-28T10:07:15.402Z,8.10
2019-01-28T10:09:44.753Z,9.43
2019-01-28T10:12:14.097Z,6.47
2019-01-28T10:15:22.810Z,8.93
2019-01-28T10:26:52.276Z,7.80
2019-01-28T10:29:43.011Z,10.23
2019-01-28T10:32:13.477Z,7.40
2019-01-28T10:34:45.307Z,7.90
2019-01-28T10:37:15.054Z,8.13
2019-01-28T10:39:45.077Z,7.53
2019-01-28T10:42:17.670Z,6.87
2019-01-28T10:44:54.838Z,6.57
2019-01-28T10:47:24.386Z,7.27
2019-01-28T10:49:54.377Z,8.13
2019-01-28T10:52:24.218Z,6.77
2019-01-28T10:57:54.197Z,7.23
2019-01-28T11:03:27.246Z,8.27
2019-01-28T11:06:01.393Z,8.40
2019-01-28T11:08:49.974Z,8.43
2019-01-28T11:11:20.070Z,7.07
2019-01-28T11:14:28.718Z,7.37
2019-01-28T11:16:58.465Z,7.23
2019-01-28T11:19:28.215Z,7.33
2019-01-28T11:22:36.904Z,8.20
2019-01-28T11:25:09.502Z,8.17
2019-01-28T11:31:00.028Z,9.03
2019-01-28T11:33:49.540Z,8.23
2019-01-28T11:39:17.388Z,8.97
2019-01-28T11:41:49.194Z,7.23
2019-01-28T11:44:37.989Z,7.77
2019-01-28T11:47:07.546Z,7.20
2019-01-28T11:49:37.436Z,8.67
2019-01-28T11:52:06.792Z,6.73
2019-01-28T11:54:36.759Z,8.13
2019-01-28T11:57:25.349Z,8.07
2019-01-28T12:03:09.313Z,6.93
2019-01-28T12:05:38.853Z,10.47
2019-01-28T12:08:11.481Z,6.30
2019-01-28T12:10:41.072Z,7.87
2019-01-28T12:13:12.617Z,8.87
2019-01-28T12:15:44.345Z,5.83
2019-01-28T12:18:14.433Z,10.63
2019-01-28T12:20:44.726Z,7.40
2019-01-28T12:23:27.267Z,8.23
2019-01-28T12:28:57.876Z,10.53
2019-01-28T12:31:28.130Z,8.00
2019-01-28T12:34:00.647Z,7.60
2019-01-28T12:36:31.386Z,7.63
2019-01-28T12:39:01.588Z,6.53
2019-01-28T12:41:31.322Z,5.87
2019-01-28T12:46:36.293Z,8.63
2019-01-28T12:49:07.927Z,7.80
2019-01-28T12:54:15.468Z,6.10
2019-01-28T12:56:46.046Z,6.33
2019-01-28T12:59:34.710Z,6.87
2019-01-28T13:02:23.226Z,9.77
2019-01-28T13:04:53.072Z,7.83
2019-01-28T13:07:22.653Z,6.40
2019-01-28T13:09:52.672Z,9.33
2019-01-28T13:12:22.117Z,9.13
2019-01-28T13:14:51.730Z,7.30
2019-01-28T13:17:21.680Z,7.83
2019-01-28T13:19:53.620Z,8.17
2019-01-28T13:27:57.856Z,8.93
2019-01-28T13:30:34.285Z,7.87
2019-01-28T13:33:22.780Z,8.33
2019-01-28T13:35:52.475Z,7.33
2019-01-28T13:38:22.146Z,9.60
2019-01-28T13:40:51.511Z,7.47
2019-01-28T13:43:21.499Z,7.33
2019-01-28T13:45:59.535Z,7.07
2019-01-28T13:51:53.535Z,8.10
2019-01-28T13:57:15.317Z,8.23
2019-01-28T14:03:11.049Z,5.47
2019-01-28T14:08:29.597Z,5.40
2019-01-28T14:16:50.252Z,7.60
2019-01-28T14:19:19.776Z,7.63
2019-01-28T14:21:49.280Z,8.10
2019-01-28T14:24:19.155Z,9.63
2019-01-28T14:26:48.455Z,7.80
2019-01-28T14:29:18.194Z,7.97
2019-01-28T14:31:47.480Z,11.73
2019-01-28T14:34:16.828Z,7.93
2019-01-28T14:36:46.126Z,9.47
2019-01-28T14:39:34.469Z,8.10
2019-01-28T14:42:04.235Z,9.37
2019-01-28T14:44:33.532Z,11.70
2019-01-28T14:47:03.113Z,7.50
2019-01-28T14:49:32.572Z,13.03
2019-01-28T14:52:02.264Z,14.60
2019-01-28T14:54:31.546Z,6.77
2019-01-28T14:57:01.303Z,9.17
2019-01-28T14:59:30.585Z,9.60
2019-01-28T15:02:00.366Z,7.80
2019-01-28T15:04:29.795Z,6.63
2019-01-28T15:06:59.585Z,9.73
2019-01-28T15:09:31.472Z,11.57
2019-01-28T15:12:00.858Z,10.63
2019-01-28T15:14:49.236Z,10.60
2019-01-28T15:17:18.704Z,7.47
2019-01-28T15:19:50.796Z,11.77
2019-01-28T15:22:19.926Z,10.73
2019-01-28T15:24:49.486Z,10.50
2019-01-28T15:27:19.257Z,12.73
2019-01-28T15:29:48.608Z,7.77
2019-01-28T15:32:18.571Z,11.63
2019-01-28T15:34:47.941Z,9.10
2019-01-28T15:37:17.350Z,9.83
2019-01-28T15:39:46.643Z,9.17
2019-01-28T15:42:16.140Z,11.87
2019-01-28T15:45:11.220Z,8.00
2019-01-28T15:47:35.379Z,7.50
2019-01-28T15:50:10.505Z,12.30
2019-01-28T15:52:36.507Z,9.20
2019-01-28T15:55:28.820Z,9.53
2019-01-28T15:57:58.162Z,9.30
2019-01-28T16:00:29.444Z,7.23
2019-01-28T16:03:18.174Z,8.67
2019-01-28T16:05:47.478Z,7.33
2019-01-28T16:08:17.019Z,9.20
2019-01-28T16:10:46.347Z,12.50
2019-01-28T16:13:15.907Z,11.83
2019-01-28T16:18:41.445Z,9.77
2019-01-28T16:21:10.783Z,10.23
2019-01-28T16:23:40.174Z,9.00
2019-01-28T16:26:28.384Z,9.63
2019-01-28T16:28:57.793Z,7.83
2019-01-28T16:31:27.298Z,8.90
2019-01-28T16:34:15.860Z,10.57
2019-01-28T16:36:56.452Z,6.53
2019-01-28T16:39:26.107Z,7.93
2019-01-28T16:42:14.359Z,6.80
2019-01-28T16:44:43.699Z,9.53
2019-01-28T16:47:13.063Z,10.23
2019-01-28T16:49:42.377Z,9.50
2019-01-28T16:52:11.688Z,9.07
2019-01-28T16:54:41.094Z,14.27
2019-01-28T16:57:10.421Z,10.47
2019-01-28T16:59:39.828Z,8.77
2019-01-28T17:02:09.118Z,9.53
2019-01-28T17:04:38.409Z,9.43
2019-01-28T17:07:26.750Z,9.00
2019-01-28T17:13:10.301Z,11.50
2019-01-28T17:15:39.919Z,9.27
2019-01-28T17:18:09.347Z,6.97
2019-01-28T17:21:18.017Z,11.77
2019-01-28T17:23:47.343Z,9.27
2019-01-28T17:26:16.898Z,11.00
2019-01-28T17:28:46.184Z,13.40
2019-01-28T17:31:34.468Z,6.90
2019-01-28T17:34:04.145Z,10.80
2019-01-28T17:36:33.461Z,12.07
2019-01-28T17:44:15.220Z,10.00
2019-01-28T17:46:44.550Z,8.90
2019-01-28T17:49:16.325Z,11.70
2019-01-28T17:51:45.607Z,10.83
2019-01-28T17:54:15.196Z,14.87
2019-01-28T17:56:44.491Z,8.63
2019-01-28T17:59:13.965Z,9.33
2019-01-28T18:01:43.274Z,9.13
2019-01-28T18:04:12.613Z,10.53
2019-01-28T18:06:41.906Z,13.03
2019-01-28T18:09:11.274Z,11.20
2019-01-28T18:11:40.590Z,10.63
2019-01-28T18:14:10.043Z,11.40
2019-01-28T18:16:39.352Z,8.53
2019-01-28T18:19:08.947Z,9.57
2019-01-28T18:21:38.452Z,9.83
2019-01-28T18:24:07.927Z,9.10
2019-01-28T18:26:37.214Z,7.60
2019-01-28T18:29:06.718Z,8.93
2019-01-28T18:31:36.836Z,6.50
2019-01-28T18:34:07.190Z,7.67
2019-01-28T18:36:36.494Z,8.57
2019-01-28T18:39:47.376Z,9.77
2019-01-28T18:42:16.905Z,6.93
2019-01-28T18:44:46.187Z,8.10
2019-01-28T18:47:34.577Z,7.27
2019-01-28T18:52:43.456Z,7.37
2019-01-28T18:55:52.186Z,7.93
2019-01-28T18:58:40.510Z,6.33
2019-01-28T19:01:09.890Z,6.10
2019-01-28T19:03:39.199Z,7.43
2019-01-28T19:09:16.483Z,7.80
2019-01-28T19:11:51.004Z,8.53
2019-01-28T19:14:39.247Z,8.40
2019-01-28T19:17:27.436Z,5.60
2019-01-28T19:20:15.633Z,6.70
2019-01-28T19:22:45.135Z,8.33
2019-01-28T19:25:15.458Z,5.47
2019-01-28T19:27:44.805Z,4.43
2019-01-28T19:33:15.736Z,4.03
2019-01-28T19:35:45.044Z,7.17
2019-01-28T19:38:14.503Z,5.57
2019-01-28T19:40:43.834Z,5.57
2019-01-28T19:43:13.388Z,4.77
2019-01-28T19:45:42.699Z,4.83
2019-01-28T19:48:12.188Z,5.23
2019-01-28T19:50:41.467Z,5.77
2019-01-28T19:53:10.939Z,5.03
2019-01-28T19:55:40.320Z,5.33
2019-01-28T19:58:09.757Z,4.20
2019-01-28T20:00:39.102Z,6.63
2019-01-28T20:03:10.445Z,6.00
2019-01-28T20:05:39.849Z,5.27
2019-01-28T20:08:09.313Z,4.80
2019-01-28T20:10:38.668Z,5.00
2019-01-28T20:13:08.367Z,3.90
2019-01-28T20:18:12.410Z,3.97
2019-01-28T20:20:42.231Z,4.60
2019-01-28T20:23:11.523Z,3.70
2019-01-28T20:28:29.610Z,5.90
2019-01-28T20:30:58.921Z,4.13
2019-01-28T20:33:28.414Z,4.57
2019-01-28T20:35:57.840Z,3.60
2019-01-28T20:38:27.361Z,4.10
2019-01-28T20:41:15.758Z,5.30
2019-01-28T20:43:45.111Z,4.23
2019-01-28T20:46:14.686Z,5.47
2019-01-28T20:48:44.033Z,4.80
2019-01-28T20:54:02.056Z,4.27
2019-01-28T20:56:31.418Z,5.20
2019-01-28T20:59:01.110Z,5.43
2019-01-28T21:01:30.544Z,4.17
2019-01-28T21:04:00.330Z,5.30
2019-01-28T21:06:48.984Z,4.87
2019-01-28T21:09:18.312Z,4.70
2019-01-28T21:12:06.659Z,4.17
2019-01-28T21:14:36.148Z,5.80
2019-01-28T21:17:06.053Z,5.40
2019-01-28T21:22:29.718Z,3.97
2019-01-28T21:24:59.061Z,6.37
2019-01-28T21:27:47.480Z,3.87
2019-01-28T21:30:35.942Z,4.33
2019-01-28T21:36:12.814Z,3.50
2019-01-28T21:39:01.257Z,5.53
2019-01-28T21:41:30.934Z,5.43
2019-01-28T21:44:00.271Z,3.77
2019-01-28T21:46:29.813Z,3.53
2019-01-28T21:48:59.114Z,4.80
2019-01-28T21:51:28.451Z,4.43
2019-01-28T21:53:57.808Z,4.40
2019-01-28T21:56:27.337Z,5.57
2019-01-28T21:58:56.645Z,5.17
2019-01-28T22:01:26.309Z,5.07
2019-01-28T22:04:14.913Z,4.57
2019-01-28T22:06:44.189Z,5.27
2019-01-28T22:09:14.103Z,4.23
2019-01-28T22:11:43.387Z,3.23
2019-01-28T22:17:01.529Z,3.87
2019-01-28T22:19:30.853Z,4.13
2019-01-28T22:22:00.361Z,4.53
2019-01-28T22:24:49.036Z,4.20
2019-01-28T22:27:18.337Z,4.63
2019-01-28T22:29:47.986Z,3.67
2019-01-28T22:32:17.315Z,2.83
2019-01-28T22:34:47.988Z,4.33
2019-01-28T22:37:18.188Z,4.23
2019-01-28T22:39:47.738Z,4.53
2019-01-28T22:42:21.455Z,4.73
2019-01-28T22:44:48.047Z,4.40
2019-01-28T22:47:17.378Z,4.30
2019-01-28T22:49:46.717Z,4.50
2019-01-28T22:52:16.022Z,5.03
2019-01-28T22:54:45.374Z,4.40
2019-01-28T22:57:14.745Z,4.33
2019-01-28T22:59:44.232Z,4.93
2019-01-28T23:02:13.626Z,5.27
2019-01-28T23:04:43.007Z,7.23
2019-01-28T23:07:12.307Z,4.03
2019-01-28T23:09:41.711Z,4.07
2019-01-28T23:12:10.996Z,3.90
2019-01-28T23:14:40.369Z,3.47
2019-01-28T23:17:09.660Z,4.73
2019-01-28T23:19:39.198Z,4.47
2019-01-28T23:22:16.029Z,4.97
2019-01-28T23:24:39.605Z,4.83
2019-01-28T23:27:09.117Z,6.53
2019-01-28T23:29:57.373Z,4.83
2019-01-28T23:32:26.724Z,2.77
2019-01-28T23:34:56.015Z,3.83
2019-01-28T23:37:25.400Z,4.20
2019-01-28T23:39:54.686Z,3.93
2019-01-28T23:42:24.247Z,4.10
2019-01-28T23:44:53.614Z,4.07
2019-01-28T23:47:22.977Z,3.67
2019-01-28T23:49:52.268Z,3.33
2019-01-28T23:52:24.943Z,4.97
2019-01-28T23:54:52.982Z,2.93
2019-01-28T23:57:22.399Z,4.30
2019-01-28T23:59:51.762Z,3.13
